createdAt,value
2022-12-20T00:01:30.768Z,99.90
2022-12-20T00:04:02.316Z,99.90
2022-12-20T00:06:29.462Z,99.90
2022-12-20T00:09:02.137Z,99.90
2022-12-20T00:11:30.018Z,99.90
2022-12-20T00:13:58.676Z,99.90
2022-12-20T00:16:29.332Z,99.90
2022-12-20T00:18:59.992Z,99.90
2022-12-20T00:21:28.668Z,99.90
2022-12-20T00:23:56.087Z,99.90
2022-12-20T00:26:27.410Z,99.90
2022-12-20T00:28:54.807Z,99.90
2022-12-20T00:31:24.263Z,99.90
2022-12-20T00:33:54.560Z,99.90
2022-12-20T00:36:23.736Z,99.90
2022-12-20T00:38:53.054Z,99.90
2022-12-20T00:41:29.784Z,99.90
2022-12-20T00:43:57.073Z,99.90
2022-12-20T00:46:24.846Z,99.90
2022-12-20T00:48:52.689Z,99.90
2022-12-20T00:51:23.835Z,99.90
2022-12-20T00:53:50.860Z,99.90
2022-12-20T00:56:18.503Z,99.90
2022-12-20T00:58:46.036Z,99.90
2022-12-20T01:01:26.057Z,99.90
2022-12-20T01:03:54.581Z,99.90
2022-12-20T01:06:25.029Z,99.90
2022-12-20T01:08:53.906Z,99.90
2022-12-20T01:11:31.978Z,99.90
2022-12-20T01:14:13.931Z,99.90
2022-12-20T01:16:44.904Z,99.90
2022-12-20T01:19:15.387Z,99.90
2022-12-20T01:21:44.802Z,99.90
2022-12-20T01:24:17.698Z,99.90
2022-12-20T01:26:47.087Z,99.90
2022-12-20T01:29:15.020Z,99.90
2022-12-20T01:31:42.276Z,99.90
2022-12-20T01:34:10.507Z,99.90
2022-12-20T01:36:38.528Z,99.90
2022-12-20T01:39:08.690Z,99.90
2022-12-20T01:41:37.831Z,99.90
2022-12-20T01:44:17.752Z,99.90
2022-12-20T01:46:47.199Z,99.90
2022-12-20T01:49:18.156Z,99.90
2022-12-20T01:51:50.588Z,99.90
2022-12-20T01:54:32.062Z,99.90
2022-12-20T01:57:05.156Z,99.90
2022-12-20T01:59:36.440Z,99.90
2022-12-20T02:02:08.299Z,99.90
2022-12-20T02:04:35.493Z,99.90
2022-12-20T02:07:04.089Z,99.90
2022-12-20T02:09:33.860Z,99.90
2022-12-20T02:12:15.613Z,99.90
2022-12-20T02:15:20.907Z,99.90
2022-12-20T02:17:56.783Z,99.90
2022-12-20T02:21:01.703Z,99.90
2022-12-20T02:24:25.050Z,99.90
2022-12-20T02:27:36.665Z,99.90
2022-12-20T02:30:21.289Z,99.90
2022-12-20T02:32:59.507Z,99.90
2022-12-20T02:35:33.729Z,99.90
2022-12-20T02:38:24.535Z,99.90
2022-12-20T02:41:15.309Z,99.90
2022-12-20T02:44:04.711Z,99.90
2022-12-20T02:46:34.005Z,99.90
2022-12-20T02:49:06.672Z,99.90
2022-12-20T02:51:34.205Z,99.90
2022-12-20T02:54:01.853Z,99.90
2022-12-20T02:56:45.789Z,99.90
2022-12-20T02:59:19.845Z,99.90
2022-12-20T03:01:51.883Z,99.90
2022-12-20T03:04:24.446Z,99.90
2022-12-20T03:07:00.173Z,99.90
2022-12-20T03:09:28.625Z,99.90
2022-12-20T03:11:55.887Z,99.90
2022-12-20T03:14:23.576Z,99.90
2022-12-20T03:16:50.715Z,99.90
2022-12-20T03:19:17.661Z,99.90
2022-12-20T03:21:44.770Z,99.90
2022-12-20T03:24:13.552Z,99.90
2022-12-20T03:26:41.604Z,99.90
2022-12-20T03:29:08.617Z,99.90
2022-12-20T03:31:36.415Z,99.90
2022-12-20T03:34:04.014Z,99.90
2022-12-20T03:36:30.983Z,99.90
2022-12-20T03:38:58.008Z,99.90
2022-12-20T03:41:25.888Z,99.90
2022-12-20T03:43:53.213Z,99.90
2022-12-20T03:46:20.531Z,99.90
2022-12-20T03:48:47.463Z,99.90
2022-12-20T03:51:14.488Z,99.90
2022-12-20T03:53:41.406Z,99.90
2022-12-20T03:56:08.513Z,99.90
2022-12-20T03:58:35.523Z,99.90
2022-12-20T04:01:02.520Z,99.90
2022-12-20T04:03:29.697Z,99.90
2022-12-20T04:05:56.635Z,99.90
2022-12-20T04:08:23.542Z,99.90
2022-12-20T04:11:08.793Z,99.90
2022-12-20T04:13:35.792Z,99.90
2022-12-20T04:16:02.695Z,99.90
2022-12-20T04:18:29.670Z,99.90
2022-12-20T04:20:56.533Z,99.90
2022-12-20T04:23:23.395Z,99.90
2022-12-20T04:25:50.406Z,99.90
2022-12-20T04:28:17.353Z,99.90
2022-12-20T04:30:44.263Z,99.90
2022-12-20T04:33:11.191Z,99.90
2022-12-20T04:35:38.568Z,99.90
2022-12-20T04:38:05.415Z,99.90
2022-12-20T04:40:32.276Z,99.90
2022-12-20T04:42:59.253Z,99.90
2022-12-20T04:45:26.258Z,99.90
2022-12-20T04:47:53.287Z,99.90
2022-12-20T04:50:20.283Z,99.90
2022-12-20T04:53:06.077Z,99.90
2022-12-20T04:55:38.655Z,99.90
2022-12-20T04:58:07.919Z,99.90
2022-12-20T05:00:35.243Z,99.90
2022-12-20T05:03:02.443Z,99.90
2022-12-20T05:05:29.636Z,99.90
2022-12-20T05:07:56.664Z,99.90
2022-12-20T05:10:23.995Z,99.90
2022-12-20T05:12:50.948Z,99.90
2022-12-20T05:15:18.291Z,99.90
2022-12-20T05:17:45.289Z,99.90
2022-12-20T05:20:13.042Z,99.90
2022-12-20T05:22:58.820Z,99.90
2022-12-20T05:25:44.218Z,99.90
2022-12-20T05:28:11.355Z,99.90
2022-12-20T05:30:38.405Z,99.90
2022-12-20T05:33:05.351Z,99.90
2022-12-20T05:35:32.506Z,99.90
2022-12-20T05:37:59.555Z,99.90
2022-12-20T05:40:26.570Z,99.90
2022-12-20T05:42:53.943Z,99.90
2022-12-20T05:45:21.029Z,99.90
2022-12-20T05:47:47.903Z,99.90
2022-12-20T05:50:19.171Z,99.90
2022-12-20T05:52:46.286Z,99.90
2022-12-20T05:55:13.777Z,99.90
2022-12-20T05:57:40.747Z,99.90
2022-12-20T06:00:08.744Z,99.90
2022-12-20T06:02:35.884Z,99.90
2022-12-20T06:05:02.949Z,99.90
2022-12-20T06:07:30.130Z,99.90
2022-12-20T06:09:57.537Z,99.90
2022-12-20T06:12:24.933Z,99.90
2022-12-20T06:14:51.868Z,99.90
2022-12-20T06:17:20.149Z,99.90
2022-12-20T06:19:47.165Z,99.90
2022-12-20T06:22:14.066Z,99.90
2022-12-20T06:24:47.655Z,99.90
2022-12-20T06:27:15.524Z,99.90
2022-12-20T06:32:16.307Z,99.90
2022-12-20T06:34:43.272Z,99.90
2022-12-20T06:37:10.238Z,99.90
2022-12-20T06:39:37.135Z,99.90
2022-12-20T06:42:04.664Z,99.90
2022-12-20T06:44:31.656Z,99.90
2022-12-20T06:46:59.101Z,99.90
2022-12-20T06:49:26.050Z,99.90
2022-12-20T06:51:53.066Z,99.90
2022-12-20T06:54:20.278Z,99.90
2022-12-20T06:56:47.326Z,99.90
2022-12-20T06:59:14.281Z,99.90
2022-12-20T07:01:41.317Z,99.90
2022-12-20T07:04:08.513Z,99.90
2022-12-20T07:06:35.586Z,99.90
2022-12-20T07:09:03.428Z,99.90
2022-12-20T07:11:30.379Z,99.90
2022-12-20T07:13:58.281Z,99.90
2022-12-20T07:16:25.681Z,99.90
2022-12-20T07:18:54.164Z,99.90
2022-12-20T07:21:21.494Z,99.90
2022-12-20T07:23:48.874Z,99.90
2022-12-20T07:26:16.506Z,99.90
2022-12-20T07:28:44.108Z,99.90
2022-12-20T07:31:11.188Z,99.90
2022-12-20T07:33:38.935Z,99.90
2022-12-20T07:36:13.487Z,99.90
2022-12-20T07:38:40.586Z,99.90
2022-12-20T07:41:09.466Z,99.90
2022-12-20T07:43:36.897Z,99.90
2022-12-20T07:46:05.846Z,99.90
2022-12-20T07:48:33.847Z,99.90
2022-12-20T07:51:07.183Z,99.90
2022-12-20T07:53:42.211Z,99.90
2022-12-20T07:56:11.277Z,99.90
2022-12-20T07:58:41.888Z,99.90
2022-12-20T08:01:10.478Z,99.90
2022-12-20T08:03:44.562Z,99.90
2022-12-20T08:06:12.545Z,99.90
2022-12-20T08:08:46.640Z,99.90
2022-12-20T08:11:14.530Z,99.90
2022-12-20T08:13:46.294Z,99.90
2022-12-20T08:16:14.315Z,99.90
2022-12-20T08:18:41.326Z,99.90
2022-12-20T08:21:08.616Z,99.90
2022-12-20T08:23:35.629Z,99.90
2022-12-20T08:26:02.937Z,99.90
2022-12-20T08:28:29.962Z,99.90
2022-12-20T08:31:09.226Z,99.90
2022-12-20T08:33:38.189Z,99.90
2022-12-20T08:36:09.826Z,99.90
2022-12-20T08:38:37.343Z,99.90
2022-12-20T08:41:15.847Z,99.90
2022-12-20T08:43:43.567Z,99.90
2022-12-20T08:46:12.498Z,99.90
2022-12-20T08:48:40.116Z,99.90
2022-12-20T08:51:10.983Z,99.90
2022-12-20T08:53:38.794Z,99.90
2022-12-20T08:56:15.721Z,99.90
2022-12-20T08:58:45.092Z,99.90
2022-12-20T09:01:19.878Z,99.90
2022-12-20T09:03:48.070Z,99.90
2022-12-20T09:06:20.016Z,99.90
2022-12-20T09:08:48.064Z,99.90
2022-12-20T09:11:21.837Z,99.90
2022-12-20T09:13:51.641Z,99.90
2022-12-20T09:16:23.642Z,99.90
2022-12-20T09:19:04.250Z,99.90
2022-12-20T09:21:32.513Z,99.90
2022-12-20T09:23:59.504Z,99.90
2022-12-20T09:26:26.945Z,99.90
2022-12-20T09:28:54.040Z,99.90
2022-12-20T09:31:25.017Z,99.90
2022-12-20T09:33:57.982Z,99.90
2022-12-20T09:36:27.990Z,99.90
2022-12-20T09:38:55.908Z,99.90
2022-12-20T09:41:40.795Z,99.90
2022-12-20T09:44:32.327Z,99.90
2022-12-20T09:47:16.091Z,99.90
2022-12-20T09:49:47.778Z,99.90
2022-12-20T09:52:47.022Z,99.90
2022-12-20T09:55:43.037Z,99.90
2022-12-20T09:58:37.205Z,99.90
2022-12-20T10:01:24.900Z,99.90
2022-12-20T10:03:54.817Z,99.90
2022-12-20T10:07:08.648Z,99.90
2022-12-20T10:10:20.508Z,99.90
2022-12-20T10:13:06.799Z,99.90
2022-12-20T10:16:07.817Z,99.90
2022-12-20T10:18:46.557Z,99.90
2022-12-20T10:22:00.796Z,99.90
2022-12-20T10:24:33.933Z,99.90
2022-12-20T10:27:20.869Z,99.90
2022-12-20T10:29:49.573Z,99.90
2022-12-20T10:32:22.389Z,99.90
2022-12-20T10:35:09.842Z,99.90
2022-12-20T10:37:39.215Z,99.90
2022-12-20T10:41:01.426Z,99.90
2022-12-20T10:43:23.073Z,99.90
2022-12-20T10:46:04.157Z,99.90
2022-12-20T10:48:36.828Z,99.90
2022-12-20T10:51:16.162Z,99.90
2022-12-20T10:54:02.382Z,99.90
2022-12-20T10:56:36.458Z,99.90
2022-12-20T10:59:25.166Z,99.90
2022-12-20T11:01:52.226Z,99.90
2022-12-20T11:04:32.475Z,99.90
2022-12-20T11:07:21.381Z,99.90
2022-12-20T11:10:17.428Z,99.90
2022-12-20T11:12:56.037Z,99.90
2022-12-20T11:15:34.225Z,99.70
2022-12-20T11:18:31.648Z,99.40
2022-12-20T11:21:37.927Z,99.40
2022-12-20T11:25:08.090Z,99.50
2022-12-20T11:28:01.342Z,99.20
2022-12-20T11:30:48.683Z,98.80
2022-12-20T11:33:23.763Z,98.60
2022-12-20T11:35:54.548Z,98.30
2022-12-20T11:39:04.433Z,97.80
2022-12-20T11:41:47.564Z,97.20
2022-12-20T11:44:52.003Z,95.60
2022-12-20T11:47:38.579Z,95.40
2022-12-20T11:50:40.752Z,95.20
2022-12-20T11:53:37.417Z,95.40
2022-12-20T11:56:43.883Z,95.20
2022-12-20T11:59:37.823Z,95.80
2022-12-20T12:02:11.158Z,96.10
2022-12-20T12:04:51.154Z,97.60
2022-12-20T12:07:36.805Z,96.50
2022-12-20T12:10:12.721Z,96.50
2022-12-20T12:12:47.352Z,96.50
2022-12-20T12:15:41.932Z,96.60
2022-12-20T12:18:22.242Z,96.50
2022-12-20T12:21:08.882Z,96.20
2022-12-20T12:23:59.652Z,96.40
2022-12-20T12:26:30.618Z,97.50
2022-12-20T12:29:05.284Z,96.80
2022-12-20T12:32:03.936Z,96.90
2022-12-20T12:34:42.719Z,96.90
2022-12-20T12:37:25.933Z,96.70
2022-12-20T12:40:52.100Z,97.00
2022-12-20T12:43:40.697Z,97.00
2022-12-20T12:46:16.517Z,97.00
2022-12-20T12:49:25.585Z,97.20
2022-12-20T12:51:59.412Z,97.20
2022-12-20T12:54:37.826Z,97.50
2022-12-20T12:57:16.119Z,97.70
2022-12-20T12:59:48.161Z,97.70
2022-12-20T13:02:15.700Z,97.80
2022-12-20T13:05:03.847Z,97.60
2022-12-20T13:07:33.603Z,97.30
2022-12-20T13:10:20.263Z,97.30
2022-12-20T13:12:50.230Z,97.30
2022-12-20T13:15:19.999Z,97.30
2022-12-20T13:17:51.348Z,97.30
2022-12-20T13:20:22.672Z,97.40
2022-12-20T13:23:08.502Z,97.50
2022-12-20T13:25:47.891Z,97.60
2022-12-20T13:28:23.975Z,97.50
2022-12-20T13:30:53.931Z,97.70
2022-12-20T13:33:40.032Z,97.70
2022-12-20T13:36:09.794Z,97.50
2022-12-20T13:38:58.426Z,97.60
2022-12-20T13:41:48.119Z,97.70
2022-12-20T13:44:14.936Z,97.90
2022-12-20T13:46:58.833Z,98.50
2022-12-20T13:49:38.000Z,98.00
2022-12-20T13:52:32.319Z,98.00
2022-12-20T13:55:06.953Z,97.70
2022-12-20T13:57:43.828Z,97.60
2022-12-20T14:00:23.324Z,97.70
2022-12-20T14:02:50.485Z,97.80
2022-12-20T14:05:38.433Z,98.00
2022-12-20T14:08:15.391Z,98.10
2022-12-20T14:10:42.328Z,98.20
2022-12-20T14:13:35.778Z,98.20
2022-12-20T14:16:16.245Z,99.80
2022-12-20T14:19:00.118Z,98.30
2022-12-20T14:21:27.913Z,98.80
2022-12-20T14:23:57.969Z,98.30
2022-12-20T14:26:33.423Z,98.30
2022-12-20T14:29:01.502Z,98.40
2022-12-20T14:31:39.439Z,98.70
2022-12-20T14:34:17.648Z,98.70
2022-12-20T14:36:47.867Z,98.80
2022-12-20T14:39:28.950Z,98.90
2022-12-20T14:42:09.785Z,99.10
2022-12-20T14:44:36.844Z,99.20
2022-12-20T14:47:23.206Z,99.40
2022-12-20T14:49:56.796Z,99.50
2022-12-20T14:52:37.982Z,99.40
2022-12-20T14:55:16.244Z,99.10
2022-12-20T14:57:54.227Z,99.30
2022-12-20T15:00:27.952Z,99.10
2022-12-20T15:03:02.187Z,99.90
2022-12-20T15:05:35.982Z,99.50
2022-12-20T15:08:15.314Z,99.90
2022-12-20T15:11:08.587Z,99.90
2022-12-20T15:13:39.382Z,99.90
2022-12-20T15:16:21.775Z,99.90
2022-12-20T15:18:55.955Z,99.90
2022-12-20T15:21:32.631Z,99.90
2022-12-20T15:24:09.659Z,99.90
2022-12-20T15:26:37.704Z,99.90
2022-12-20T15:29:05.788Z,99.90
2022-12-20T15:31:36.326Z,99.90
2022-12-20T15:34:29.268Z,99.90
2022-12-20T15:36:56.795Z,99.90
2022-12-20T15:39:24.659Z,99.90
2022-12-20T15:41:51.720Z,99.90
2022-12-20T15:44:25.808Z,99.90
2022-12-20T15:46:53.073Z,99.90
2022-12-20T15:49:30.739Z,99.90
2022-12-20T15:51:58.126Z,99.90
2022-12-20T15:54:36.854Z,99.90
2022-12-20T15:57:09.938Z,99.90
2022-12-20T16:02:27.745Z,99.90
2022-12-20T16:04:55.705Z,99.90
2022-12-20T16:07:23.726Z,99.90
2022-12-20T16:09:50.666Z,99.90
2022-12-20T16:12:32.832Z,99.90
2022-12-20T16:14:59.729Z,99.90
2022-12-20T16:17:26.690Z,99.90
2022-12-20T16:19:53.688Z,99.90
2022-12-20T16:22:23.743Z,99.90
2022-12-20T16:24:51.866Z,99.90
2022-12-20T16:27:19.954Z,99.90
2022-12-20T16:29:46.953Z,99.90
2022-12-20T16:32:20.135Z,99.90
2022-12-20T16:34:49.417Z,99.90
2022-12-20T16:37:18.033Z,99.90
2022-12-20T16:39:45.592Z,99.90
2022-12-20T16:42:18.242Z,99.90
2022-12-20T16:44:46.249Z,99.90
2022-12-20T16:47:14.930Z,99.90
2022-12-20T16:49:51.160Z,99.90
2022-12-20T16:52:19.194Z,99.90
2022-12-20T16:54:47.709Z,99.90
2022-12-20T16:57:14.606Z,99.90
2022-12-20T16:59:41.557Z,99.90
2022-12-20T17:02:28.344Z,99.90
2022-12-20T17:04:55.683Z,99.90
2022-12-20T17:07:22.638Z,99.90
2022-12-20T17:12:34.199Z,99.90
2022-12-20T17:15:01.099Z,99.90
2022-12-20T17:17:28.064Z,99.90
2022-12-20T17:19:55.086Z,99.90
2022-12-20T17:25:17.628Z,99.90
2022-12-20T17:27:44.532Z,99.90
2022-12-20T17:30:12.455Z,99.90
2022-12-20T17:32:39.649Z,99.90
2022-12-20T17:35:12.853Z,99.90
2022-12-20T17:37:39.749Z,99.90
2022-12-20T17:40:07.661Z,99.90
2022-12-20T17:42:34.520Z,99.90
2022-12-20T17:45:01.448Z,99.90
2022-12-20T17:47:28.420Z,99.90
2022-12-20T17:49:55.358Z,99.90
2022-12-20T17:52:22.373Z,99.90
2022-12-20T17:54:49.349Z,99.90
2022-12-20T17:57:16.717Z,99.90
2022-12-20T17:59:43.889Z,99.90
2022-12-20T18:02:25.245Z,99.90
2022-12-20T18:04:53.264Z,99.90
2022-12-20T18:07:20.543Z,99.90
2022-12-20T18:09:48.524Z,99.90
2022-12-20T18:12:17.258Z,99.90
2022-12-20T18:14:44.877Z,99.90
2022-12-20T18:17:11.960Z,99.90
2022-12-20T18:19:39.506Z,99.90
2022-12-20T18:22:06.500Z,99.90
2022-12-20T18:24:33.676Z,99.90
2022-12-20T18:27:00.730Z,99.90
2022-12-20T18:29:28.493Z,99.90
2022-12-20T18:31:55.546Z,99.90
2022-12-20T18:34:22.791Z,99.90
2022-12-20T18:36:49.691Z,99.90
2022-12-20T18:39:16.764Z,99.90
2022-12-20T18:41:44.271Z,99.90
2022-12-20T18:44:11.835Z,99.90
2022-12-20T18:46:38.982Z,99.90
2022-12-20T18:49:05.967Z,99.90
2022-12-20T18:51:39.335Z,99.90
2022-12-20T18:54:08.422Z,99.90
2022-12-20T18:56:38.109Z,99.90
2022-12-20T18:59:11.411Z,99.90
2022-12-20T19:01:40.320Z,99.90
2022-12-20T19:04:08.331Z,99.90
2022-12-20T19:06:37.321Z,99.90
2022-12-20T19:09:08.528Z,99.90
2022-12-20T19:11:36.046Z,99.90
2022-12-20T19:14:03.633Z,99.90
2022-12-20T19:16:32.856Z,99.90
2022-12-20T19:19:01.941Z,99.90
2022-12-20T19:21:32.737Z,99.90
2022-12-20T19:24:05.052Z,99.90
2022-12-20T19:26:32.162Z,99.90
2022-12-20T19:28:59.368Z,99.90
2022-12-20T19:31:30.505Z,99.90
2022-12-20T19:34:02.284Z,99.90
2022-12-20T19:36:34.993Z,99.90
2022-12-20T19:39:07.381Z,99.90
2022-12-20T19:41:35.775Z,99.90
2022-12-20T19:44:03.926Z,99.90
2022-12-20T19:46:31.308Z,99.90
2022-12-20T19:49:00.456Z,99.90
2022-12-20T19:51:28.895Z,99.90
2022-12-20T19:53:58.187Z,99.90
2022-12-20T19:56:31.750Z,99.90
2022-12-20T19:58:58.733Z,99.90
2022-12-20T20:01:27.810Z,99.90
2022-12-20T20:03:58.151Z,99.90
2022-12-20T20:06:27.264Z,99.90
2022-12-20T20:08:57.833Z,99.90
2022-12-20T20:11:25.061Z,99.90
2022-12-20T20:13:52.075Z,99.90
2022-12-20T20:16:22.591Z,99.90
2022-12-20T20:18:50.977Z,99.90
2022-12-20T20:21:22.752Z,99.90
2022-12-20T20:23:51.753Z,99.90
2022-12-20T20:26:23.320Z,99.90
2022-12-20T20:28:50.466Z,99.90
2022-12-20T20:31:19.744Z,99.90
2022-12-20T20:33:47.511Z,99.90
2022-12-20T20:36:18.242Z,99.90
2022-12-20T20:38:45.812Z,99.90
2022-12-20T20:41:14.062Z,99.90
2022-12-20T20:43:41.615Z,99.90
2022-12-20T20:46:11.987Z,99.90
2022-12-20T20:48:39.785Z,99.90
2022-12-20T20:51:07.477Z,99.90
2022-12-20T20:53:35.566Z,99.90
2022-12-20T20:56:04.823Z,99.90
2022-12-20T20:58:31.900Z,99.90
2022-12-20T21:01:02.448Z,99.90
2022-12-20T21:03:30.808Z,99.90
2022-12-20T21:08:45.073Z,99.90
2022-12-20T21:11:12.509Z,99.90
2022-12-20T21:13:39.573Z,99.90
2022-12-20T21:16:20.753Z,99.90
2022-12-20T21:18:52.905Z,99.90
2022-12-20T21:21:20.802Z,99.90
2022-12-20T21:23:48.547Z,99.90
2022-12-20T21:26:17.184Z,99.90
2022-12-20T21:28:45.542Z,99.90
2022-12-20T21:31:17.220Z,99.90
2022-12-20T21:33:46.163Z,99.90
2022-12-20T21:36:19.489Z,99.90
2022-12-20T21:38:52.229Z,99.90
2022-12-20T21:41:23.169Z,99.90
2022-12-20T21:43:51.304Z,99.90
2022-12-20T21:46:18.308Z,99.90
2022-12-20T21:48:45.556Z,99.90
2022-12-20T21:51:16.680Z,99.90
2022-12-20T21:53:43.559Z,99.90
2022-12-20T21:56:11.013Z,99.90
2022-12-20T21:58:38.604Z,99.90
2022-12-20T22:01:07.949Z,99.90
2022-12-20T22:03:36.880Z,99.90
2022-12-20T22:06:04.559Z,99.90
2022-12-20T22:08:33.219Z,99.90
2022-12-20T22:11:06.035Z,99.90
2022-12-20T22:13:40.846Z,99.90
2022-12-20T22:16:25.453Z,99.90
2022-12-20T22:18:55.712Z,99.90
2022-12-20T22:21:27.457Z,99.90
2022-12-20T22:23:55.884Z,99.90
2022-12-20T22:26:26.334Z,99.90
2022-12-20T22:28:57.334Z,99.90
2022-12-20T22:31:25.988Z,99.90
2022-12-20T22:33:54.780Z,99.90
2022-12-20T22:36:25.398Z,99.90
2022-12-20T22:38:54.086Z,99.90
2022-12-20T22:41:28.862Z,99.90
2022-12-20T22:43:58.531Z,99.90
2022-12-20T22:46:25.700Z,99.90
2022-12-20T22:48:52.861Z,99.90
2022-12-20T22:51:22.128Z,99.90
2022-12-20T22:53:49.444Z,99.90
2022-12-20T22:56:18.795Z,99.90
2022-12-20T22:58:45.812Z,99.90
2022-12-20T23:01:15.224Z,99.90
2022-12-20T23:03:42.616Z,99.90
2022-12-20T23:06:14.989Z,99.90
2022-12-20T23:08:42.476Z,99.90
2022-12-20T23:11:37.275Z,99.90
2022-12-20T23:14:24.077Z,99.90
2022-12-20T23:16:51.588Z,99.90
2022-12-20T23:19:18.636Z,99.90
2022-12-20T23:22:03.975Z,99.90
2022-12-20T23:24:31.010Z,99.90
2022-12-20T23:26:58.087Z,99.90
2022-12-20T23:29:25.107Z,99.90
2022-12-20T23:31:52.095Z,99.90
2022-12-20T23:34:19.783Z,99.90
2022-12-20T23:36:46.766Z,99.90
2022-12-20T23:39:13.748Z,99.90
2022-12-20T23:41:40.734Z,99.90
2022-12-20T23:44:07.755Z,99.90
2022-12-20T23:46:34.879Z,99.90
2022-12-20T23:49:01.775Z,99.90
2022-12-20T23:51:28.737Z,99.90
2022-12-20T23:53:55.639Z,99.90
2022-12-20T23:56:23.484Z,99.90
2022-12-20T23:58:53.762Z,99.90
